sensor_id;sensor_type;location;lat;lon;timestamp;temperature;humidity
27072;DHT22;14613;46.308;25.288;2023-05-31T00:00:08;19.40;66.20
27072;DHT22;14613;46.308;25.288;2023-05-31T00:02:35;19.40;66.20
27072;DHT22;14613;46.308;25.288;2023-05-31T00:05:00;19.40;66.20
27072;DHT22;14613;46.308;25.288;2023-05-31T00:07:26;19.40;66.40
27072;DHT22;14613;46.308;25.288;2023-05-31T00:09:52;19.30;66.40
27072;DHT22;14613;46.308;25.288;2023-05-31T00:12:17;19.30;66.50
27072;DHT22;14613;46.308;25.288;2023-05-31T00:14:43;19.30;66.50
27072;DHT22;14613;46.308;25.288;2023-05-31T00:17:09;19.30;66.50
27072;DHT22;14613;46.308;25.288;2023-05-31T00:19:34;19.40;66.50
27072;DHT22;14613;46.308;25.288;2023-05-31T00:22:00;19.40;66.50
27072;DHT22;14613;46.308;25.288;2023-05-31T00:24:26;19.40;66.50
27072;DHT22;14613;46.308;25.288;2023-05-31T00:26:52;19.30;66.60
27072;DHT22;14613;46.308;25.288;2023-05-31T00:29:17;19.30;66.80
27072;DHT22;14613;46.308;25.288;2023-05-31T00:31:43;19.30;66.90
27072;DHT22;14613;46.308;25.288;2023-05-31T00:34:09;19.30;67.00
27072;DHT22;14613;46.308;25.288;2023-05-31T00:36:36;19.30;67.00
27072;DHT22;14613;46.308;25.288;2023-05-31T00:39:02;19.30;67.10
27072;DHT22;14613;46.308;25.288;2023-05-31T00:41:28;19.30;67.30
27072;DHT22;14613;46.308;25.288;2023-05-31T00:43:54;19.20;67.50
27072;DHT22;14613;46.308;25.288;2023-05-31T00:46:26;19.10;67.60
27072;DHT22;14613;46.308;25.288;2023-05-31T00:48:54;19.10;67.80
27072;DHT22;14613;46.308;25.288;2023-05-31T00:51:21;19.10;67.80
27072;DHT22;14613;46.308;25.288;2023-05-31T00:53:47;19.00;67.80
27072;DHT22;14613;46.308;25.288;2023-05-31T00:56:13;19.00;67.80
27072;DHT22;14613;46.308;25.288;2023-05-31T00:58:41;19.00;67.80
27072;DHT22;14613;46.308;25.288;2023-05-31T01:01:07;19.00;67.60
27072;DHT22;14613;46.308;25.288;2023-05-31T01:03:34;19.10;67.60
27072;DHT22;14613;46.308;25.288;2023-05-31T01:05:59;19.10;67.50
27072;DHT22;14613;46.308;25.288;2023-05-31T01:08:26;19.10;67.40
27072;DHT22;14613;46.308;25.288;2023-05-31T01:10:53;19.10;67.30
27072;DHT22;14613;46.308;25.288;2023-05-31T01:13:26;19.10;67.40
27072;DHT22;14613;46.308;25.288;2023-05-31T01:16:07;19.00;67.50
27072;DHT22;14613;46.308;25.288;2023-05-31T01:18:59;19.00;67.60
27072;DHT22;14613;46.308;25.288;2023-05-31T01:21:57;19.00;67.70
27072;DHT22;14613;46.308;25.288;2023-05-31T01:24:45;18.90;67.60
27072;DHT22;14613;46.308;25.288;2023-05-31T01:27:19;18.90;67.70
27072;DHT22;14613;46.308;25.288;2023-05-31T01:29:46;18.80;67.80
27072;DHT22;14613;46.308;25.288;2023-05-31T01:32:13;18.80;67.80
27072;DHT22;14613;46.308;25.288;2023-05-31T01:34:44;18.80;67.90
27072;DHT22;14613;46.308;25.288;2023-05-31T01:37:10;18.70;67.90
27072;DHT22;14613;46.308;25.288;2023-05-31T01:39:36;18.60;68.20
27072;DHT22;14613;46.308;25.288;2023-05-31T01:42:03;18.40;68.50
27072;DHT22;14613;46.308;25.288;2023-05-31T01:44:30;18.20;68.90
27072;DHT22;14613;46.308;25.288;2023-05-31T01:46:57;18.10;69.20
27072;DHT22;14613;46.308;25.288;2023-05-31T01:49:24;18.00;69.40
27072;DHT22;14613;46.308;25.288;2023-05-31T01:51:50;18.00;69.60
27072;DHT22;14613;46.308;25.288;2023-05-31T01:54:17;18.00;69.60
27072;DHT22;14613;46.308;25.288;2023-05-31T01:56:42;17.90;69.50
27072;DHT22;14613;46.308;25.288;2023-05-31T01:59:11;17.90;69.50
27072;DHT22;14613;46.308;25.288;2023-05-31T02:01:38;17.90;69.60
27072;DHT22;14613;46.308;25.288;2023-05-31T02:04:05;17.80;70.40
27072;DHT22;14613;46.308;25.288;2023-05-31T02:06:35;17.80;69.60
27072;DHT22;14613;46.308;25.288;2023-05-31T02:09:02;17.80;69.70
27072;DHT22;14613;46.308;25.288;2023-05-31T02:11:28;17.80;69.70
27072;DHT22;14613;46.308;25.288;2023-05-31T02:13:54;17.80;69.70
27072;DHT22;14613;46.308;25.288;2023-05-31T02:16:19;17.70;69.70
27072;DHT22;14613;46.308;25.288;2023-05-31T02:18:45;17.70;69.90
27072;DHT22;14613;46.308;25.288;2023-05-31T02:21:11;17.70;69.90
27072;DHT22;14613;46.308;25.288;2023-05-31T02:23:37;17.60;70.00
27072;DHT22;14613;46.308;25.288;2023-05-31T02:26:02;17.60;70.10
27072;DHT22;14613;46.308;25.288;2023-05-31T02:28:29;17.50;70.30
27072;DHT22;14613;46.308;25.288;2023-05-31T02:30:59;17.40;70.40
27072;DHT22;14613;46.308;25.288;2023-05-31T02:33:26;17.40;70.60
27072;DHT22;14613;46.308;25.288;2023-05-31T02:35:52;17.30;70.70
27072;DHT22;14613;46.308;25.288;2023-05-31T02:38:19;17.30;70.80
27072;DHT22;14613;46.308;25.288;2023-05-31T02:40:46;17.20;70.80
27072;DHT22;14613;46.308;25.288;2023-05-31T02:43:12;17.20;70.90
27072;DHT22;14613;46.308;25.288;2023-05-31T02:45:37;17.10;71.00
27072;DHT22;14613;46.308;25.288;2023-05-31T02:48:03;17.10;71.10
27072;DHT22;14613;46.308;25.288;2023-05-31T02:50:31;17.10;71.20
27072;DHT22;14613;46.308;25.288;2023-05-31T02:52:58;17.00;71.20
27072;DHT22;14613;46.308;25.288;2023-05-31T02:55:25;17.00;71.30
27072;DHT22;14613;46.308;25.288;2023-05-31T02:57:51;16.90;71.60
27072;DHT22;14613;46.308;25.288;2023-05-31T03:00:18;16.80;71.90
27072;DHT22;14613;46.308;25.288;2023-05-31T03:02:44;16.60;72.10
27072;DHT22;14613;46.308;25.288;2023-05-31T03:05:10;16.60;72.40
27072;DHT22;14613;46.308;25.288;2023-05-31T03:07:36;16.50;72.50
27072;DHT22;14613;46.308;25.288;2023-05-31T03:10:02;16.50;72.50
27072;DHT22;14613;46.308;25.288;2023-05-31T03:12:32;16.50;72.50
27072;DHT22;14613;46.308;25.288;2023-05-31T03:14:58;16.60;72.40
27072;DHT22;14613;46.308;25.288;2023-05-31T03:17:24;16.60;72.20
27072;DHT22;14613;46.308;25.288;2023-05-31T03:19:50;16.50;72.20
27072;DHT22;14613;46.308;25.288;2023-05-31T03:22:15;16.50;72.20
27072;DHT22;14613;46.308;25.288;2023-05-31T03:24:42;16.50;72.20
27072;DHT22;14613;46.308;25.288;2023-05-31T03:27:08;16.50;72.20
27072;DHT22;14613;46.308;25.288;2023-05-31T03:29:37;16.60;72.10
27072;DHT22;14613;46.308;25.288;2023-05-31T03:32:03;16.70;72.20
27072;DHT22;14613;46.308;25.288;2023-05-31T03:34:29;16.80;72.30
27072;DHT22;14613;46.308;25.288;2023-05-31T03:36:55;17.00;72.10
27072;DHT22;14613;46.308;25.288;2023-05-31T03:39:21;17.00;71.70
27072;DHT22;14613;46.308;25.288;2023-05-31T03:41:47;17.00;71.50
27072;DHT22;14613;46.308;25.288;2023-05-31T03:44:12;17.00;71.40
27072;DHT22;14613;46.308;25.288;2023-05-31T03:46:38;16.90;71.50
27072;DHT22;14613;46.308;25.288;2023-05-31T03:49:04;16.80;71.70
27072;DHT22;14613;46.308;25.288;2023-05-31T03:51:31;16.60;71.90
27072;DHT22;14613;46.308;25.288;2023-05-31T03:53:57;16.50;72.20
27072;DHT22;14613;46.308;25.288;2023-05-31T03:56:23;16.50;72.20
27072;DHT22;14613;46.308;25.288;2023-05-31T03:58:49;16.50;72.10
27072;DHT22;14613;46.308;25.288;2023-05-31T04:01:15;16.60;72.00
27072;DHT22;14613;46.308;25.288;2023-05-31T04:03:41;16.60;71.80
27072;DHT22;14613;46.308;25.288;2023-05-31T04:06:07;16.60;71.80
27072;DHT22;14613;46.308;25.288;2023-05-31T04:08:32;16.70;71.70
27072;DHT22;14613;46.308;25.288;2023-05-31T04:10:58;16.80;71.80
27072;DHT22;14613;46.308;25.288;2023-05-31T04:13:24;16.80;71.70
27072;DHT22;14613;46.308;25.288;2023-05-31T04:15:50;16.80;72.60
27072;DHT22;14613;46.308;25.288;2023-05-31T04:18:15;16.80;71.80
27072;DHT22;14613;46.308;25.288;2023-05-31T04:20:41;16.90;71.80
27072;DHT22;14613;46.308;25.288;2023-05-31T04:23:07;17.00;71.90
27072;DHT22;14613;46.308;25.288;2023-05-31T04:25:33;17.00;71.80
27072;DHT22;14613;46.308;25.288;2023-05-31T04:27:58;17.20;71.80
27072;DHT22;14613;46.308;25.288;2023-05-31T04:30:24;17.30;71.80
27072;DHT22;14613;46.308;25.288;2023-05-31T04:32:50;17.40;71.70
27072;DHT22;14613;46.308;25.288;2023-05-31T04:35:18;17.50;71.60
27072;DHT22;14613;46.308;25.288;2023-05-31T04:37:43;17.60;71.50
27072;DHT22;14613;46.308;25.288;2023-05-31T04:40:10;17.70;71.30
27072;DHT22;14613;46.308;25.288;2023-05-31T04:42:36;17.90;71.20
27072;DHT22;14613;46.308;25.288;2023-05-31T04:45:02;18.00;71.00
27072;DHT22;14613;46.308;25.288;2023-05-31T04:47:33;18.00;70.80
27072;DHT22;14613;46.308;25.288;2023-05-31T04:49:59;18.10;70.60
27072;DHT22;14613;46.308;25.288;2023-05-31T04:52:26;18.20;70.50
27072;DHT22;14613;46.308;25.288;2023-05-31T04:54:55;18.30;70.20
27072;DHT22;14613;46.308;25.288;2023-05-31T04:57:22;18.30;70.10
27072;DHT22;14613;46.308;25.288;2023-05-31T04:59:48;18.40;70.00
27072;DHT22;14613;46.308;25.288;2023-05-31T05:02:16;18.50;69.80
27072;DHT22;14613;46.308;25.288;2023-05-31T05:04:42;18.50;69.60
27072;DHT22;14613;46.308;25.288;2023-05-31T05:07:08;18.50;69.50
27072;DHT22;14613;46.308;25.288;2023-05-31T05:09:34;18.60;69.50
27072;DHT22;14613;46.308;25.288;2023-05-31T05:11:59;18.60;69.40
27072;DHT22;14613;46.308;25.288;2023-05-31T05:14:25;18.60;69.60
27072;DHT22;14613;46.308;25.288;2023-05-31T05:16:51;18.60;69.60
27072;DHT22;14613;46.308;25.288;2023-05-31T05:19:17;18.60;69.50
27072;DHT22;14613;46.308;25.288;2023-05-31T05:21:42;18.60;69.50
27072;DHT22;14613;46.308;25.288;2023-05-31T05:24:08;18.60;69.60
27072;DHT22;14613;46.308;25.288;2023-05-31T05:26:34;18.60;69.70
27072;DHT22;14613;46.308;25.288;2023-05-31T05:29:00;18.70;69.70
27072;DHT22;14613;46.308;25.288;2023-05-31T05:31:26;18.80;69.70
27072;DHT22;14613;46.308;25.288;2023-05-31T05:33:52;18.90;69.40
27072;DHT22;14613;46.308;25.288;2023-05-31T05:36:18;19.10;69.30
27072;DHT22;14613;46.308;25.288;2023-05-31T05:38:44;19.20;69.10
27072;DHT22;14613;46.308;25.288;2023-05-31T05:41:10;19.40;69.00
27072;DHT22;14613;46.308;25.288;2023-05-31T05:43:39;19.60;68.70
27072;DHT22;14613;46.308;25.288;2023-05-31T05:46:04;19.80;68.30
27072;DHT22;14613;46.308;25.288;2023-05-31T05:48:30;20.00;68.00
27072;DHT22;14613;46.308;25.288;2023-05-31T05:50:57;20.20;67.80
27072;DHT22;14613;46.308;25.288;2023-05-31T05:53:23;20.40;67.50
27072;DHT22;14613;46.308;25.288;2023-05-31T05:55:52;20.60;67.90
27072;DHT22;14613;46.308;25.288;2023-05-31T05:58:18;21.10;67.50
27072;DHT22;14613;46.308;25.288;2023-05-31T06:00:45;21.60;66.80
27072;DHT22;14613;46.308;25.288;2023-05-31T06:03:11;21.90;66.10
27072;DHT22;14613;46.308;25.288;2023-05-31T06:05:37;22.20;65.50
27072;DHT22;14613;46.308;25.288;2023-05-31T06:08:03;22.50;64.90
27072;DHT22;14613;46.308;25.288;2023-05-31T06:10:29;22.80;64.60
27072;DHT22;14613;46.308;25.288;2023-05-31T06:12:55;23.00;64.20
27072;DHT22;14613;46.308;25.288;2023-05-31T06:15:21;23.30;63.90
27072;DHT22;14613;46.308;25.288;2023-05-31T06:17:46;23.50;63.40
27072;DHT22;14613;46.308;25.288;2023-05-31T06:20:15;23.80;63.00
27072;DHT22;14613;46.308;25.288;2023-05-31T06:22:42;24.00;62.40
27072;DHT22;14613;46.308;25.288;2023-05-31T06:25:08;24.20;62.10
27072;DHT22;14613;46.308;25.288;2023-05-31T06:27:34;24.50;61.80
27072;DHT22;14613;46.308;25.288;2023-05-31T06:30:00;24.90;61.20
27072;DHT22;14613;46.308;25.288;2023-05-31T06:32:30;25.20;60.60
27072;DHT22;14613;46.308;25.288;2023-05-31T06:34:56;25.60;60.00
27072;DHT22;14613;46.308;25.288;2023-05-31T06:37:22;25.80;59.60
27072;DHT22;14613;46.308;25.288;2023-05-31T06:39:49;26.00;60.00
27072;DHT22;14613;46.308;25.288;2023-05-31T06:42:15;26.20;59.10
27072;DHT22;14613;46.308;25.288;2023-05-31T06:44:42;26.50;59.00
27072;DHT22;14613;46.308;25.288;2023-05-31T06:47:08;26.90;58.70
27072;DHT22;14613;46.308;25.288;2023-05-31T06:49:34;27.30;58.00
27072;DHT22;14613;46.308;25.288;2023-05-31T06:52:00;27.60;57.50
27072;DHT22;14613;46.308;25.288;2023-05-31T06:54:27;27.80;57.20
27072;DHT22;14613;46.308;25.288;2023-05-31T06:56:53;28.10;56.80
27072;DHT22;14613;46.308;25.288;2023-05-31T06:59:19;28.40;56.30
27072;DHT22;14613;46.308;25.288;2023-05-31T07:01:44;28.70;56.00
27072;DHT22;14613;46.308;25.288;2023-05-31T07:04:10;29.10;55.70
27072;DHT22;14613;46.308;25.288;2023-05-31T07:06:36;29.40;55.30
27072;DHT22;14613;46.308;25.288;2023-05-31T07:09:04;29.70;54.80
27072;DHT22;14613;46.308;25.288;2023-05-31T07:11:30;29.90;54.10
27072;DHT22;14613;46.308;25.288;2023-05-31T07:13:56;30.10;53.70
27072;DHT22;14613;46.308;25.288;2023-05-31T07:16:27;30.30;53.40
27072;DHT22;14613;46.308;25.288;2023-05-31T07:18:54;30.40;53.00
27072;DHT22;14613;46.308;25.288;2023-05-31T07:21:19;30.60;52.40
27072;DHT22;14613;46.308;25.288;2023-05-31T07:23:45;30.70;51.90
27072;DHT22;14613;46.308;25.288;2023-05-31T07:26:11;30.80;51.70
27072;DHT22;14613;46.308;25.288;2023-05-31T07:28:37;30.90;51.20
27072;DHT22;14613;46.308;25.288;2023-05-31T07:31:02;30.90;51.10
27072;DHT22;14613;46.308;25.288;2023-05-31T07:33:29;31.00;51.00
27072;DHT22;14613;46.308;25.288;2023-05-31T07:35:57;31.10;50.90
27072;DHT22;14613;46.308;25.288;2023-05-31T07:38:23;31.20;50.60
27072;DHT22;14613;46.308;25.288;2023-05-31T07:40:49;31.30;50.20
27072;DHT22;14613;46.308;25.288;2023-05-31T07:43:14;31.30;49.60
27072;DHT22;14613;46.308;25.288;2023-05-31T07:45:41;31.40;49.70
27072;DHT22;14613;46.308;25.288;2023-05-31T07:48:06;31.50;49.30
27072;DHT22;14613;46.308;25.288;2023-05-31T07:50:33;31.60;48.90
27072;DHT22;14613;46.308;25.288;2023-05-31T07:52:58;31.80;48.70
27072;DHT22;14613;46.308;25.288;2023-05-31T07:55:24;32.00;48.60
27072;DHT22;14613;46.308;25.288;2023-05-31T07:57:50;32.20;48.50
27072;DHT22;14613;46.308;25.288;2023-05-31T08:00:16;32.30;48.00
27072;DHT22;14613;46.308;25.288;2023-05-31T08:02:42;32.60;47.70
27072;DHT22;14613;46.308;25.288;2023-05-31T08:05:08;32.70;47.40
27072;DHT22;14613;46.308;25.288;2023-05-31T08:07:34;32.70;47.30
27072;DHT22;14613;46.308;25.288;2023-05-31T08:10:00;32.60;46.90
27072;DHT22;14613;46.308;25.288;2023-05-31T08:12:27;32.50;47.00
27072;DHT22;14613;46.308;25.288;2023-05-31T08:14:52;32.30;47.00
27072;DHT22;14613;46.308;25.288;2023-05-31T08:17:18;32.30;46.80
27072;DHT22;14613;46.308;25.288;2023-05-31T08:19:44;32.30;46.50
27072;DHT22;14613;46.308;25.288;2023-05-31T08:22:10;32.30;45.90
27072;DHT22;14613;46.308;25.288;2023-05-31T08:24:36;32.20;45.70
27072;DHT22;14613;46.308;25.288;2023-05-31T08:27:02;32.10;45.80
27072;DHT22;14613;46.308;25.288;2023-05-31T08:29:27;32.20;45.80
27072;DHT22;14613;46.308;25.288;2023-05-31T08:31:53;32.30;45.80
27072;DHT22;14613;46.308;25.288;2023-05-31T08:34:20;32.50;45.70
27072;DHT22;14613;46.308;25.288;2023-05-31T08:36:46;32.70;45.40
27072;DHT22;14613;46.308;25.288;2023-05-31T08:39:13;32.80;45.30
27072;DHT22;14613;46.308;25.288;2023-05-31T08:42:22;33.00;45.00
27072;DHT22;14613;46.308;25.288;2023-05-31T08:44:37;33.20;44.90
27072;DHT22;14613;46.308;25.288;2023-05-31T08:47:19;33.50;44.70
27072;DHT22;14613;46.308;25.288;2023-05-31T08:49:48;33.70;44.20
27072;DHT22;14613;46.308;25.288;2023-05-31T08:52:16;33.80;43.90
27072;DHT22;14613;46.308;25.288;2023-05-31T08:54:43;33.90;43.70
27072;DHT22;14613;46.308;25.288;2023-05-31T08:57:09;33.80;43.40
27072;DHT22;14613;46.308;25.288;2023-05-31T08:59:37;33.60;43.30
27072;DHT22;14613;46.308;25.288;2023-05-31T09:02:03;33.60;43.30
27072;DHT22;14613;46.308;25.288;2023-05-31T09:04:30;33.60;43.20
27072;DHT22;14613;46.308;25.288;2023-05-31T09:06:56;33.40;42.80
27072;DHT22;14613;46.308;25.288;2023-05-31T09:09:21;33.30;42.80
27072;DHT22;14613;46.308;25.288;2023-05-31T09:11:47;33.20;43.70
27072;DHT22;14613;46.308;25.288;2023-05-31T09:14:13;33.00;43.00
27072;DHT22;14613;46.308;25.288;2023-05-31T09:16:40;33.00;43.10
27072;DHT22;14613;46.308;25.288;2023-05-31T09:19:06;33.10;43.00
27072;DHT22;14613;46.308;25.288;2023-05-31T09:21:40;33.20;42.60
27072;DHT22;14613;46.308;25.288;2023-05-31T09:24:06;33.10;42.20
27072;DHT22;14613;46.308;25.288;2023-05-31T09:26:33;33.10;42.40
27072;DHT22;14613;46.308;25.288;2023-05-31T09:28:59;33.20;42.40
27072;DHT22;14613;46.308;25.288;2023-05-31T09:31:25;33.40;42.40
27072;DHT22;14613;46.308;25.288;2023-05-31T09:33:52;33.60;42.30
27072;DHT22;14613;46.308;25.288;2023-05-31T09:38:49;33.80;42.00
27072;DHT22;14613;46.308;25.288;2023-05-31T09:41:18;33.80;41.50
27072;DHT22;14613;46.308;25.288;2023-05-31T09:43:48;33.80;41.00
27072;DHT22;14613;46.308;25.288;2023-05-31T09:46:19;33.80;41.10
27072;DHT22;14613;46.308;25.288;2023-05-31T09:48:46;33.80;41.20
27072;DHT22;14613;46.308;25.288;2023-05-31T09:51:21;33.80;41.30
27072;DHT22;14613;46.308;25.288;2023-05-31T09:53:47;33.90;41.30
27072;DHT22;14613;46.308;25.288;2023-05-31T09:56:20;33.90;41.10
27072;DHT22;14613;46.308;25.288;2023-05-31T09:58:49;34.10;40.80
27072;DHT22;14613;46.308;25.288;2023-05-31T10:01:17;34.30;40.70
27072;DHT22;14613;46.308;25.288;2023-05-31T10:03:43;34.40;40.60
27072;DHT22;14613;46.308;25.288;2023-05-31T10:06:09;34.60;40.40
27072;DHT22;14613;46.308;25.288;2023-05-31T10:08:35;34.80;40.10
27072;DHT22;14613;46.308;25.288;2023-05-31T10:11:02;34.80;39.60
27072;DHT22;14613;46.308;25.288;2023-05-31T10:13:29;34.80;39.50
27072;DHT22;14613;46.308;25.288;2023-05-31T10:15:57;34.80;39.10
27072;DHT22;14613;46.308;25.288;2023-05-31T10:18:32;34.70;38.90
27072;DHT22;14613;46.308;25.288;2023-05-31T10:21:20;34.50;38.60
27072;DHT22;14613;46.308;25.288;2023-05-31T10:24:13;34.20;38.70
27072;DHT22;14613;46.308;25.288;2023-05-31T10:29:35;33.60;39.10
27072;DHT22;14613;46.308;25.288;2023-05-31T10:34:41;33.20;39.50
27072;DHT22;14613;46.308;25.288;2023-05-31T10:37:07;33.00;39.60
27072;DHT22;14613;46.308;25.288;2023-05-31T10:42:22;32.60;39.70
27072;DHT22;14613;46.308;25.288;2023-05-31T10:45:20;32.20;39.80
27072;DHT22;14613;46.308;25.288;2023-05-31T10:51:11;31.10;40.70
27072;DHT22;14613;46.308;25.288;2023-05-31T10:53:39;30.50;41.60
27072;DHT22;14613;46.308;25.288;2023-05-31T10:56:06;30.10;42.20
27072;DHT22;14613;46.308;25.288;2023-05-31T10:58:50;29.90;42.70
27072;DHT22;14613;46.308;25.288;2023-05-31T11:01:19;29.80;43.20
27072;DHT22;14613;46.308;25.288;2023-05-31T11:03:53;29.60;43.30
27072;DHT22;14613;46.308;25.288;2023-05-31T11:06:30;29.50;43.60
27072;DHT22;14613;46.308;25.288;2023-05-31T11:09:00;29.40;43.70
27072;DHT22;14613;46.308;25.288;2023-05-31T11:11:27;29.20;44.10
27072;DHT22;14613;46.308;25.288;2023-05-31T11:19:15;28.80;44.90
27072;DHT22;14613;46.308;25.288;2023-05-31T11:21:55;28.70;45.10
27072;DHT22;14613;46.308;25.288;2023-05-31T11:24:51;28.60;45.20
27072;DHT22;14613;46.308;25.288;2023-05-31T11:27:35;28.60;45.40
27072;DHT22;14613;46.308;25.288;2023-05-31T11:30:23;28.50;45.60
27072;DHT22;14613;46.308;25.288;2023-05-31T11:32:54;28.50;45.70
27072;DHT22;14613;46.308;25.288;2023-05-31T11:35:20;28.40;45.70
27072;DHT22;14613;46.308;25.288;2023-05-31T11:37:47;28.40;46.40
27072;DHT22;14613;46.308;25.288;2023-05-31T11:40:15;28.30;45.80
27072;DHT22;14613;46.308;25.288;2023-05-31T11:42:42;28.20;45.80
27072;DHT22;14613;46.308;25.288;2023-05-31T11:45:12;28.20;45.90
27072;DHT22;14613;46.308;25.288;2023-05-31T11:47:50;28.10;45.80
27072;DHT22;14613;46.308;25.288;2023-05-31T11:50:19;28.10;45.90
27072;DHT22;14613;46.308;25.288;2023-05-31T11:52:45;28.00;45.80
27072;DHT22;14613;46.308;25.288;2023-05-31T11:55:15;27.90;46.00
27072;DHT22;14613;46.308;25.288;2023-05-31T11:57:45;27.80;46.20
27072;DHT22;14613;46.308;25.288;2023-05-31T12:00:15;27.70;46.30
27072;DHT22;14613;46.308;25.288;2023-05-31T12:02:42;27.50;46.50
27072;DHT22;14613;46.308;25.288;2023-05-31T12:05:15;27.20;46.60
27072;DHT22;14613;46.308;25.288;2023-05-31T12:07:41;27.10;46.80
27072;DHT22;14613;46.308;25.288;2023-05-31T12:10:08;27.00;47.70
27072;DHT22;14613;46.308;25.288;2023-05-31T12:12:35;26.90;47.30
27072;DHT22;14613;46.308;25.288;2023-05-31T12:15:02;27.00;47.60
27072;DHT22;14613;46.308;25.288;2023-05-31T12:17:31;27.20;47.70
27072;DHT22;14613;46.308;25.288;2023-05-31T12:19:57;27.30;47.60
27072;DHT22;14613;46.308;25.288;2023-05-31T12:22:23;27.50;47.60
27072;DHT22;14613;46.308;25.288;2023-05-31T12:24:49;27.50;47.40
27072;DHT22;14613;46.308;25.288;2023-05-31T12:27:19;27.40;47.60
27072;DHT22;14613;46.308;25.288;2023-05-31T12:29:45;27.20;47.60
27072;DHT22;14613;46.308;25.288;2023-05-31T12:32:12;27.20;47.70
27072;DHT22;14613;46.308;25.288;2023-05-31T12:34:38;27.30;47.60
27072;DHT22;14613;46.308;25.288;2023-05-31T12:37:10;27.40;47.60
27072;DHT22;14613;46.308;25.288;2023-05-31T12:39:37;27.50;47.40
27072;DHT22;14613;46.308;25.288;2023-05-31T12:42:03;27.70;47.30
27072;DHT22;14613;46.308;25.288;2023-05-31T12:44:31;27.80;47.10
27072;DHT22;14613;46.308;25.288;2023-05-31T12:47:07;27.80;47.10
27072;DHT22;14613;46.308;25.288;2023-05-31T12:49:35;27.90;47.10
27072;DHT22;14613;46.308;25.288;2023-05-31T12:54:29;27.90;46.90
27072;DHT22;14613;46.308;25.288;2023-05-31T12:56:57;27.90;47.00
27072;DHT22;14613;46.308;25.288;2023-05-31T12:59:24;27.80;46.90
27072;DHT22;14613;46.308;25.288;2023-05-31T13:01:54;27.90;46.90
27072;DHT22;14613;46.308;25.288;2023-05-31T13:04:19;27.90;46.80
27072;DHT22;14613;46.308;25.288;2023-05-31T13:06:45;27.90;46.80
27072;DHT22;14613;46.308;25.288;2023-05-31T13:09:11;27.80;46.80
27072;DHT22;14613;46.308;25.288;2023-05-31T13:11:38;27.70;46.90
27072;DHT22;14613;46.308;25.288;2023-05-31T13:14:06;27.70;46.90
27072;DHT22;14613;46.308;25.288;2023-05-31T13:16:34;27.60;46.90
27072;DHT22;14613;46.308;25.288;2023-05-31T13:19:01;27.50;47.00
27072;DHT22;14613;46.308;25.288;2023-05-31T13:21:28;27.50;47.00
27072;DHT22;14613;46.308;25.288;2023-05-31T13:23:55;27.50;47.00
27072;DHT22;14613;46.308;25.288;2023-05-31T13:26:23;27.60;46.90
27072;DHT22;14613;46.308;25.288;2023-05-31T13:28:49;27.60;46.80
27072;DHT22;14613;46.308;25.288;2023-05-31T13:31:16;27.70;46.90
27072;DHT22;14613;46.308;25.288;2023-05-31T13:33:42;27.70;46.80
27072;DHT22;14613;46.308;25.288;2023-05-31T13:36:08;27.80;46.90
27072;DHT22;14613;46.308;25.288;2023-05-31T13:38:34;27.90;46.80
27072;DHT22;14613;46.308;25.288;2023-05-31T13:40:59;27.90;46.80
27072;DHT22;14613;46.308;25.288;2023-05-31T13:43:25;28.00;46.80
27072;DHT22;14613;46.308;25.288;2023-05-31T13:45:52;28.10;46.90
27072;DHT22;14613;46.308;25.288;2023-05-31T13:48:18;28.20;46.80
27072;DHT22;14613;46.308;25.288;2023-05-31T13:50:44;28.30;46.70
27072;DHT22;14613;46.308;25.288;2023-05-31T13:53:10;28.30;46.60
27072;DHT22;14613;46.308;25.288;2023-05-31T13:55:37;28.40;46.60
27072;DHT22;14613;46.308;25.288;2023-05-31T13:58:03;28.50;46.60
27072;DHT22;14613;46.308;25.288;2023-05-31T14:00:31;28.50;46.60
27072;DHT22;14613;46.308;25.288;2023-05-31T14:02:57;28.50;46.50
27072;DHT22;14613;46.308;25.288;2023-05-31T14:05:22;28.50;46.40
27072;DHT22;14613;46.308;25.288;2023-05-31T14:07:48;28.50;46.30
27072;DHT22;14613;46.308;25.288;2023-05-31T14:10:15;28.40;46.40
27072;DHT22;14613;46.308;25.288;2023-05-31T14:12:41;28.30;46.50
27072;DHT22;14613;46.308;25.288;2023-05-31T14:15:07;28.30;46.70
27072;DHT22;14613;46.308;25.288;2023-05-31T14:17:33;28.20;46.80
27072;DHT22;14613;46.308;25.288;2023-05-31T14:19:59;28.30;47.00
27072;DHT22;14613;46.308;25.288;2023-05-31T14:22:25;28.20;47.00
27072;DHT22;14613;46.308;25.288;2023-05-31T14:24:51;28.00;47.00
27072;DHT22;14613;46.308;25.288;2023-05-31T14:27:17;27.90;47.10
27072;DHT22;14613;46.308;25.288;2023-05-31T14:29:44;27.80;47.30
27072;DHT22;14613;46.308;25.288;2023-05-31T14:32:10;27.60;47.60
27072;DHT22;14613;46.308;25.288;2023-05-31T14:34:41;27.40;47.80
27072;DHT22;14613;46.308;25.288;2023-05-31T14:37:07;27.20;48.60
27072;DHT22;14613;46.308;25.288;2023-05-31T14:39:33;27.00;48.80
27072;DHT22;14613;46.308;25.288;2023-05-31T14:41:58;26.80;48.30
27072;DHT22;14613;46.308;25.288;2023-05-31T14:44:25;26.70;48.50
27072;DHT22;14613;46.308;25.288;2023-05-31T14:46:51;26.60;48.80
27072;DHT22;14613;46.308;25.288;2023-05-31T14:49:18;26.40;49.00
27072;DHT22;14613;46.308;25.288;2023-05-31T14:51:44;26.30;49.10
27072;DHT22;14613;46.308;25.288;2023-05-31T14:54:10;26.20;49.40
27072;DHT22;14613;46.308;25.288;2023-05-31T14:56:35;25.90;49.60
27072;DHT22;14613;46.308;25.288;2023-05-31T14:59:01;25.70;49.80
27072;DHT22;14613;46.308;25.288;2023-05-31T15:01:27;25.70;50.00
27072;DHT22;14613;46.308;25.288;2023-05-31T15:03:52;25.50;50.10
27072;DHT22;14613;46.308;25.288;2023-05-31T15:06:20;25.40;50.10
27072;DHT22;14613;46.308;25.288;2023-05-31T15:08:47;25.30;50.30
27072;DHT22;14613;46.308;25.288;2023-05-31T15:11:13;25.20;50.40
27072;DHT22;14613;46.308;25.288;2023-05-31T15:13:38;25.10;50.50
27072;DHT22;14613;46.308;25.288;2023-05-31T15:16:04;25.00;50.60
27072;DHT22;14613;46.308;25.288;2023-05-31T15:18:30;25.00;50.80
27072;DHT22;14613;46.308;25.288;2023-05-31T15:20:56;24.90;50.90
27072;DHT22;14613;46.308;25.288;2023-05-31T15:23:22;24.80;51.10
27072;DHT22;14613;46.308;25.288;2023-05-31T15:25:47;24.80;51.20
27072;DHT22;14613;46.308;25.288;2023-05-31T15:28:13;24.70;51.30
27072;DHT22;14613;46.308;25.288;2023-05-31T15:30:39;24.70;51.30
27072;DHT22;14613;46.308;25.288;2023-05-31T15:33:05;24.70;51.20
27072;DHT22;14613;46.308;25.288;2023-05-31T15:35:30;24.70;51.30
27072;DHT22;14613;46.308;25.288;2023-05-31T15:38:00;24.70;51.30